sensor_id;sensor_type;location;lat;lon;timestamp;pressure;altitude;pressure_sealevel;temperature;humidity
63281;BME280;49406;51.044;3.766;2023-07-31T00:02:12;101275.95;;;17.58;100.00
63281;BME280;49406;51.044;3.766;2023-07-31T00:04:46;101272.38;;;17.60;100.00
63281;BME280;49406;51.044;3.766;2023-07-31T00:07:22;101266.92;;;17.59;100.00
63281;BME280;49406;51.044;3.766;2023-07-31T00:09:57;101260.82;;;17.54;100.00
63281;BME280;49406;51.044;3.766;2023-07-31T00:12:31;101262.38;;;17.56;100.00
63281;BME280;49406;51.044;3.766;2023-07-31T00:15:07;101256.48;;;17.59;100.00
63281;BME280;49406;51.044;3.766;2023-07-31T00:17:42;101253.32;;;17.59;100.00
63281;BME280;49406;51.044;3.766;2023-07-31T00:20:17;101247.15;;;17.57;100.00
63281;BME280;49406;51.044;3.766;2023-07-31T00:22:51;101250.33;;;17.58;100.00
63281;BME280;49406;51.044;3.766;2023-07-31T00:25:26;101247.86;;;17.57;100.00
63281;BME280;49406;51.044;3.766;2023-07-31T00:28:00;101250.36;;;17.56;100.00
63281;BME280;49406;51.044;3.766;2023-07-31T00:30:35;101242.52;;;17.60;100.00
63281;BME280;49406;51.044;3.766;2023-07-31T00:33:09;101241.32;;;17.57;100.00
63281;BME280;49406;51.044;3.766;2023-07-31T00:35:44;101241.98;;;17.60;100.00
63281;BME280;49406;51.044;3.766;2023-07-31T00:38:19;101240.55;;;17.61;100.00
63281;BME280;49406;51.044;3.766;2023-07-31T00:40:53;101240.54;;;17.62;100.00
63281;BME280;49406;51.044;3.766;2023-07-31T00:43:28;101244.77;;;17.64;100.00
63281;BME280;49406;51.044;3.766;2023-07-31T00:46:01;101239.98;;;17.65;100.00
63281;BME280;49406;51.044;3.766;2023-07-31T00:48:36;101238.72;;;17.67;100.00
63281;BME280;49406;51.044;3.766;2023-07-31T00:51:12;101237.67;;;17.66;100.00
63281;BME280;49406;51.044;3.766;2023-07-31T00:53:46;101241.23;;;17.63;100.00
63281;BME280;49406;51.044;3.766;2023-07-31T00:56:21;101233.30;;;17.62;100.00
63281;BME280;49406;51.044;3.766;2023-07-31T00:58:56;101238.18;;;17.68;100.00
63281;BME280;49406;51.044;3.766;2023-07-31T01:01:30;101239.39;;;17.70;100.00
63281;BME280;49406;51.044;3.766;2023-07-31T01:04:05;101236.74;;;17.70;100.00
63281;BME280;49406;51.044;3.766;2023-07-31T01:06:45;101234.69;;;17.63;100.00
63281;BME280;49406;51.044;3.766;2023-07-31T01:09:31;101235.73;;;17.66;100.00
63281;BME280;49406;51.044;3.766;2023-07-31T01:12:09;101237.66;;;17.69;100.00
63281;BME280;49406;51.044;3.766;2023-07-31T01:15:05;101233.36;;;17.71;100.00
63281;BME280;49406;51.044;3.766;2023-07-31T01:17:44;101230.02;;;17.71;100.00
63281;BME280;49406;51.044;3.766;2023-07-31T01:20:22;101229.70;;;17.68;100.00
63281;BME280;49406;51.044;3.766;2023-07-31T01:26:10;101223.08;;;17.74;100.00
63281;BME280;49406;51.044;3.766;2023-07-31T01:28:53;101213.86;;;17.74;100.00
63281;BME280;49406;51.044;3.766;2023-07-31T01:31:29;101215.61;;;17.75;100.00
63281;BME280;49406;51.044;3.766;2023-07-31T01:34:04;101212.31;;;17.72;100.00
63281;BME280;49406;51.044;3.766;2023-07-31T01:36:40;101209.21;;;17.78;100.00
63281;BME280;49406;51.044;3.766;2023-07-31T01:39:15;101197.55;;;17.79;100.00
63281;BME280;49406;51.044;3.766;2023-07-31T01:41:49;101197.33;;;17.81;100.00
63281;BME280;49406;51.044;3.766;2023-07-31T01:44:24;101196.48;;;17.78;100.00
63281;BME280;49406;51.044;3.766;2023-07-31T01:46:58;101185.77;;;17.73;100.00
63281;BME280;49406;51.044;3.766;2023-07-31T01:49:33;101193.45;;;17.80;100.00
63281;BME280;49406;51.044;3.766;2023-07-31T01:52:08;101192.52;;;17.84;100.00
63281;BME280;49406;51.044;3.766;2023-07-31T01:54:43;101191.88;;;17.90;100.00
63281;BME280;49406;51.044;3.766;2023-07-31T01:57:18;101186.95;;;17.88;100.00
63281;BME280;49406;51.044;3.766;2023-07-31T01:59:52;101178.39;;;17.82;100.00
63281;BME280;49406;51.044;3.766;2023-07-31T02:02:27;101171.50;;;17.81;100.00
63281;BME280;49406;51.044;3.766;2023-07-31T02:05:01;101169.14;;;17.85;100.00
63281;BME280;49406;51.044;3.766;2023-07-31T02:07:36;101162.45;;;17.84;100.00
63281;BME280;49406;51.044;3.766;2023-07-31T02:10:11;101155.22;;;17.83;100.00
63281;BME280;49406;51.044;3.766;2023-07-31T02:12:45;101148.88;;;17.80;100.00
63281;BME280;49406;51.044;3.766;2023-07-31T02:15:20;101145.78;;;17.75;100.00
63281;BME280;49406;51.044;3.766;2023-07-31T02:17:54;101137.64;;;17.74;100.00
63281;BME280;49406;51.044;3.766;2023-07-31T02:20:29;101135.30;;;17.77;100.00
63281;BME280;49406;51.044;3.766;2023-07-31T02:23:04;101137.20;;;17.80;100.00
63281;BME280;49406;51.044;3.766;2023-07-31T02:25:38;101133.15;;;17.79;100.00
63281;BME280;49406;51.044;3.766;2023-07-31T02:28:13;101130.16;;;17.78;100.00
63281;BME280;49406;51.044;3.766;2023-07-31T02:30:47;101126.63;;;17.78;100.00
63281;BME280;49406;51.044;3.766;2023-07-31T02:33:24;101120.38;;;17.83;100.00
63281;BME280;49406;51.044;3.766;2023-07-31T02:35:59;101119.98;;;17.85;100.00
63281;BME280;49406;51.044;3.766;2023-07-31T02:41:07;101110.06;;;17.86;100.00
63281;BME280;49406;51.044;3.766;2023-07-31T02:43:42;101107.28;;;17.83;100.00
63281;BME280;49406;51.044;3.766;2023-07-31T02:46:16;101106.08;;;17.80;100.00
63281;BME280;49406;51.044;3.766;2023-07-31T02:48:51;101103.20;;;17.84;100.00
63281;BME280;49406;51.044;3.766;2023-07-31T02:51:25;101104.42;;;17.84;100.00
63281;BME280;49406;51.044;3.766;2023-07-31T02:54:00;101099.87;;;17.82;100.00
63281;BME280;49406;51.044;3.766;2023-07-31T02:56:34;101102.50;;;17.83;100.00
63281;BME280;49406;51.044;3.766;2023-07-31T02:59:09;101095.41;;;17.84;100.00
63281;BME280;49406;51.044;3.766;2023-07-31T03:01:44;101093.29;;;17.84;100.00
63281;BME280;49406;51.044;3.766;2023-07-31T03:04:18;101084.13;;;17.81;100.00
63281;BME280;49406;51.044;3.766;2023-07-31T03:06:53;101078.50;;;17.80;100.00
63281;BME280;49406;51.044;3.766;2023-07-31T03:09:27;101078.66;;;17.82;100.00
63281;BME280;49406;51.044;3.766;2023-07-31T03:12:02;101075.66;;;17.80;100.00
63281;BME280;49406;51.044;3.766;2023-07-31T03:14:37;101074.45;;;17.78;100.00
63281;BME280;49406;51.044;3.766;2023-07-31T03:17:11;101064.06;;;17.76;100.00
63281;BME280;49406;51.044;3.766;2023-07-31T03:19:46;101063.30;;;17.79;100.00
63281;BME280;49406;51.044;3.766;2023-07-31T03:22:19;101066.50;;;17.78;100.00
63281;BME280;49406;51.044;3.766;2023-07-31T03:24:54;101062.73;;;17.71;100.00
63281;BME280;49406;51.044;3.766;2023-07-31T03:27:28;101063.04;;;17.62;100.00
63281;BME280;49406;51.044;3.766;2023-07-31T03:30:03;101067.41;;;17.54;100.00
63281;BME280;49406;51.044;3.766;2023-07-31T03:32:38;101060.89;;;17.43;100.00
63281;BME280;49406;51.044;3.766;2023-07-31T03:35:13;101055.40;;;17.33;100.00
63281;BME280;49406;51.044;3.766;2023-07-31T03:37:48;101051.77;;;17.27;100.00
63281;BME280;49406;51.044;3.766;2023-07-31T03:40:22;101045.37;;;17.20;100.00
63281;BME280;49406;51.044;3.766;2023-07-31T03:42:57;101048.30;;;17.13;100.00
63281;BME280;49406;51.044;3.766;2023-07-31T03:45:31;101040.08;;;17.07;100.00
63281;BME280;49406;51.044;3.766;2023-07-31T03:48:06;101037.15;;;17.03;100.00
63281;BME280;49406;51.044;3.766;2023-07-31T03:50:42;101029.92;;;17.02;100.00
63281;BME280;49406;51.044;3.766;2023-07-31T03:53:16;101021.13;;;17.00;100.00
63281;BME280;49406;51.044;3.766;2023-07-31T03:55:51;101017.28;;;16.98;100.00
63281;BME280;49406;51.044;3.766;2023-07-31T03:58:25;101012.88;;;16.96;100.00
63281;BME280;49406;51.044;3.766;2023-07-31T04:01:00;101023.31;;;16.94;100.00
63281;BME280;49406;51.044;3.766;2023-07-31T04:03:34;101023.16;;;16.93;100.00
63281;BME280;49406;51.044;3.766;2023-07-31T04:06:09;101026.69;;;16.93;100.00
63281;BME280;49406;51.044;3.766;2023-07-31T04:08:44;101024.77;;;16.92;100.00
63281;BME280;49406;51.044;3.766;2023-07-31T04:11:19;101019.29;;;16.92;100.00
63281;BME280;49406;51.044;3.766;2023-07-31T04:13:53;101012.35;;;16.95;100.00
63281;BME280;49406;51.044;3.766;2023-07-31T04:16:28;101012.52;;;16.96;100.00
63281;BME280;49406;51.044;3.766;2023-07-31T04:19:03;101006.92;;;16.93;100.00
63281;BME280;49406;51.044;3.766;2023-07-31T04:21:37;101003.02;;;16.93;100.00
63281;BME280;49406;51.044;3.766;2023-07-31T04:24:12;101004.96;;;16.93;100.00
63281;BME280;49406;51.044;3.766;2023-07-31T04:26:46;101003.74;;;16.92;100.00
63281;BME280;49406;51.044;3.766;2023-07-31T04:29:21;101007.81;;;16.92;100.00
63281;BME280;49406;51.044;3.766;2023-07-31T04:31:57;101006.02;;;16.93;100.00
63281;BME280;49406;51.044;3.766;2023-07-31T04:34:31;101012.19;;;16.95;100.00
63281;BME280;49406;51.044;3.766;2023-07-31T04:37:06;101008.13;;;16.95;100.00
63281;BME280;49406;51.044;3.766;2023-07-31T04:39:41;101007.61;;;16.93;100.00
63281;BME280;49406;51.044;3.766;2023-07-31T04:42:15;101009.20;;;16.93;100.00
63281;BME280;49406;51.044;3.766;2023-07-31T04:44:50;101012.73;;;16.93;100.00
63281;BME280;49406;51.044;3.766;2023-07-31T04:47:26;101009.27;;;16.90;100.00
63281;BME280;49406;51.044;3.766;2023-07-31T04:50:00;101006.08;;;16.90;100.00
63281;BME280;49406;51.044;3.766;2023-07-31T04:52:35;101004.00;;;16.88;100.00
63281;BME280;49406;51.044;3.766;2023-07-31T04:55:10;100999.25;;;16.87;100.00
63281;BME280;49406;51.044;3.766;2023-07-31T04:57:44;100993.27;;;16.85;100.00
63281;BME280;49406;51.044;3.766;2023-07-31T05:00:19;100988.33;;;16.86;100.00
63281;BME280;49406;51.044;3.766;2023-07-31T05:02:54;100980.92;;;16.84;100.00
63281;BME280;49406;51.044;3.766;2023-07-31T05:05:28;100977.36;;;16.87;100.00
63281;BME280;49406;51.044;3.766;2023-07-31T05:08:03;100975.02;;;16.89;100.00
63281;BME280;49406;51.044;3.766;2023-07-31T05:10:38;100972.66;;;16.92;100.00
63281;BME280;49406;51.044;3.766;2023-07-31T05:13:12;100975.34;;;16.91;100.00
63281;BME280;49406;51.044;3.766;2023-07-31T05:15:47;100970.23;;;16.91;100.00
63281;BME280;49406;51.044;3.766;2023-07-31T05:18:22;100971.27;;;16.91;100.00
63281;BME280;49406;51.044;3.766;2023-07-31T05:20:57;100970.68;;;16.95;100.00
63281;BME280;49406;51.044;3.766;2023-07-31T05:23:31;100967.48;;;16.95;100.00
63281;BME280;49406;51.044;3.766;2023-07-31T05:26:07;100962.36;;;16.97;100.00
63281;BME280;49406;51.044;3.766;2023-07-31T05:28:42;100955.77;;;17.00;100.00
63281;BME280;49406;51.044;3.766;2023-07-31T05:31:17;100958.50;;;17.06;100.00
63281;BME280;49406;51.044;3.766;2023-07-31T05:33:52;100958.30;;;17.07;100.00
63281;BME280;49406;51.044;3.766;2023-07-31T05:36:26;100959.16;;;17.08;100.00
63281;BME280;49406;51.044;3.766;2023-07-31T05:39:01;100955.10;;;17.08;100.00
63281;BME280;49406;51.044;3.766;2023-07-31T05:41:39;100956.97;;;17.13;100.00
63281;BME280;49406;51.044;3.766;2023-07-31T05:44:14;100951.11;;;17.15;100.00
63281;BME280;49406;51.044;3.766;2023-07-31T05:46:48;100957.95;;;17.18;100.00
63281;BME280;49406;51.044;3.766;2023-07-31T05:49:23;100958.48;;;17.18;100.00
63281;BME280;49406;51.044;3.766;2023-07-31T05:51:58;100958.30;;;17.18;100.00
63281;BME280;49406;51.044;3.766;2023-07-31T05:54:33;100957.73;;;17.20;100.00
63281;BME280;49406;51.044;3.766;2023-07-31T05:57:07;100959.23;;;17.17;100.00
63281;BME280;49406;51.044;3.766;2023-07-31T05:59:42;100961.50;;;17.18;100.00
63281;BME280;49406;51.044;3.766;2023-07-31T06:02:17;100956.04;;;17.17;100.00
63281;BME280;49406;51.044;3.766;2023-07-31T06:04:51;100955.52;;;17.15;100.00
63281;BME280;49406;51.044;3.766;2023-07-31T06:07:26;100951.83;;;17.15;100.00
63281;BME280;49406;51.044;3.766;2023-07-31T06:10:01;100951.45;;;17.16;100.00
63281;BME280;49406;51.044;3.766;2023-07-31T06:12:36;100950.19;;;17.18;100.00
63281;BME280;49406;51.044;3.766;2023-07-31T06:15:12;100944.42;;;17.23;100.00
63281;BME280;49406;51.044;3.766;2023-07-31T06:17:46;100937.99;;;17.27;100.00
63281;BME280;49406;51.044;3.766;2023-07-31T06:20:21;100940.08;;;17.29;100.00
63281;BME280;49406;51.044;3.766;2023-07-31T06:22:56;100933.00;;;17.29;100.00
63281;BME280;49406;51.044;3.766;2023-07-31T06:25:30;100929.23;;;17.33;100.00
63281;BME280;49406;51.044;3.766;2023-07-31T06:28:05;100928.14;;;17.35;100.00
63281;BME280;49406;51.044;3.766;2023-07-31T06:30:39;100925.59;;;17.39;100.00
63281;BME280;49406;51.044;3.766;2023-07-31T06:33:14;100921.13;;;17.41;100.00
63281;BME280;49406;51.044;3.766;2023-07-31T06:35:49;100913.42;;;17.46;100.00
63281;BME280;49406;51.044;3.766;2023-07-31T06:38:26;100912.97;;;17.60;100.00
63281;BME280;49406;51.044;3.766;2023-07-31T06:41:01;100910.30;;;17.61;100.00
63281;BME280;49406;51.044;3.766;2023-07-31T06:43:35;100909.05;;;17.62;100.00
63281;BME280;49406;51.044;3.766;2023-07-31T06:46:10;100910.42;;;17.65;100.00
63281;BME280;49406;51.044;3.766;2023-07-31T06:48:45;100913.82;;;17.62;100.00
63281;BME280;49406;51.044;3.766;2023-07-31T06:51:19;100911.94;;;17.59;100.00
63281;BME280;49406;51.044;3.766;2023-07-31T06:53:54;100917.31;;;17.56;100.00
63281;BME280;49406;51.044;3.766;2023-07-31T06:56:28;100917.11;;;17.56;100.00
63281;BME280;49406;51.044;3.766;2023-07-31T06:59:03;100921.27;;;17.60;100.00
63281;BME280;49406;51.044;3.766;2023-07-31T07:01:37;100927.25;;;17.62;100.00
63281;BME280;49406;51.044;3.766;2023-07-31T07:04:12;100924.93;;;17.64;100.00
63281;BME280;49406;51.044;3.766;2023-07-31T07:06:46;100925.15;;;17.61;100.00
63281;BME280;49406;51.044;3.766;2023-07-31T07:09:21;100928.48;;;17.63;100.00
63281;BME280;49406;51.044;3.766;2023-07-31T07:11:56;100917.27;;;17.67;100.00
63281;BME280;49406;51.044;3.766;2023-07-31T07:14:30;100926.52;;;17.74;100.00
63281;BME280;49406;51.044;3.766;2023-07-31T07:17:05;100937.05;;;17.78;100.00
63281;BME280;49406;51.044;3.766;2023-07-31T07:19:41;100921.80;;;17.81;100.00
63281;BME280;49406;51.044;3.766;2023-07-31T07:22:16;100923.05;;;17.97;100.00
63281;BME280;49406;51.044;3.766;2023-07-31T07:24:51;100920.05;;;18.14;100.00
63281;BME280;49406;51.044;3.766;2023-07-31T07:27:25;100924.68;;;18.27;100.00
63281;BME280;49406;51.044;3.766;2023-07-31T07:30:00;100923.55;;;18.39;100.00
63281;BME280;49406;51.044;3.766;2023-07-31T07:32:35;100925.30;;;18.55;100.00
63281;BME280;49406;51.044;3.766;2023-07-31T07:35:10;100928.84;;;18.64;100.00
63281;BME280;49406;51.044;3.766;2023-07-31T07:37:44;100925.98;;;18.65;100.00
63281;BME280;49406;51.044;3.766;2023-07-31T07:40:19;100930.48;;;18.60;100.00
63281;BME280;49406;51.044;3.766;2023-07-31T07:42:54;100924.73;;;18.57;100.00
63281;BME280;49406;51.044;3.766;2023-07-31T07:45:28;100923.20;;;18.54;100.00
63281;BME280;49406;51.044;3.766;2023-07-31T07:48:03;100925.02;;;18.53;100.00
63281;BME280;49406;51.044;3.766;2023-07-31T07:50:39;100926.59;;;18.53;100.00
63281;BME280;49406;51.044;3.766;2023-07-31T07:53:14;100922.11;;;18.48;100.00
63281;BME280;49406;51.044;3.766;2023-07-31T07:55:48;100917.52;;;18.47;100.00
63281;BME280;49406;51.044;3.766;2023-07-31T07:58:23;100924.91;;;18.49;100.00
63281;BME280;49406;51.044;3.766;2023-07-31T08:00:57;100917.60;;;18.52;100.00
63281;BME280;49406;51.044;3.766;2023-07-31T08:03:32;100913.03;;;18.57;100.00
63281;BME280;49406;51.044;3.766;2023-07-31T08:06:07;100912.50;;;18.67;100.00
63281;BME280;49406;51.044;3.766;2023-07-31T08:08:42;100911.56;;;18.75;100.00
63281;BME280;49406;51.044;3.766;2023-07-31T08:11:17;100908.05;;;18.81;100.00
63281;BME280;49406;51.044;3.766;2023-07-31T08:13:51;100905.27;;;18.86;100.00
63281;BME280;49406;51.044;3.766;2023-07-31T08:16:26;100905.27;;;18.86;100.00
63281;BME280;49406;51.044;3.766;2023-07-31T08:19:01;100907.41;;;18.86;100.00
63281;BME280;49406;51.044;3.766;2023-07-31T08:21:35;100910.02;;;18.88;100.00
63281;BME280;49406;51.044;3.766;2023-07-31T08:24:10;100913.20;;;18.95;100.00
63281;BME280;49406;51.044;3.766;2023-07-31T08:26:45;100901.17;;;19.02;100.00
63281;BME280;49406;51.044;3.766;2023-07-31T08:29:19;100901.86;;;19.09;100.00
63281;BME280;49406;51.044;3.766;2023-07-31T08:31:54;100900.19;;;19.12;100.00
63281;BME280;49406;51.044;3.766;2023-07-31T08:34:28;100902.14;;;19.12;100.00
63281;BME280;49406;51.044;3.766;2023-07-31T08:37:03;100896.94;;;19.14;100.00
63281;BME280;49406;51.044;3.766;2023-07-31T08:39:38;100898.30;;;19.17;100.00
63281;BME280;49406;51.044;3.766;2023-07-31T08:42:13;100897.96;;;19.29;100.00
63281;BME280;49406;51.044;3.766;2023-07-31T08:44:48;100895.82;;;19.42;100.00
63281;BME280;49406;51.044;3.766;2023-07-31T08:47:25;100884.83;;;19.56;100.00
63281;BME280;49406;51.044;3.766;2023-07-31T08:49:58;100881.91;;;19.72;100.00
63281;BME280;49406;51.044;3.766;2023-07-31T08:52:33;100888.17;;;19.76;100.00
63281;BME280;49406;51.044;3.766;2023-07-31T08:55:09;100893.55;;;19.74;100.00
63281;BME280;49406;51.044;3.766;2023-07-31T08:57:44;100888.77;;;19.86;100.00
63281;BME280;49406;51.044;3.766;2023-07-31T09:00:21;100887.02;;;19.96;100.00
63281;BME280;49406;51.044;3.766;2023-07-31T09:02:56;100883.63;;;19.97;100.00
63281;BME280;49406;51.044;3.766;2023-07-31T09:05:32;100891.84;;;19.90;100.00
63281;BME280;49406;51.044;3.766;2023-07-31T09:08:09;100883.25;;;19.92;100.00
63281;BME280;49406;51.044;3.766;2023-07-31T09:10:45;100881.56;;;19.95;100.00
63281;BME280;49406;51.044;3.766;2023-07-31T09:13:20;100880.73;;;19.93;100.00
63281;BME280;49406;51.044;3.766;2023-07-31T09:15:54;100878.86;;;19.96;100.00
63281;BME280;49406;51.044;3.766;2023-07-31T09:18:29;100876.88;;;19.98;100.00
63281;BME280;49406;51.044;3.766;2023-07-31T09:21:05;100875.48;;;20.03;100.00
63281;BME280;49406;51.044;3.766;2023-07-31T09:23:44;100873.85;;;19.98;100.00
63281;BME280;49406;51.044;3.766;2023-07-31T09:26:32;100874.86;;;20.05;100.00
63281;BME280;49406;51.044;3.766;2023-07-31T09:29:18;100874.22;;;20.03;100.00
63281;BME280;49406;51.044;3.766;2023-07-31T09:31:51;100867.73;;;20.07;100.00
63281;BME280;49406;51.044;3.766;2023-07-31T09:34:30;100866.20;;;20.05;100.00
63281;BME280;49406;51.044;3.766;2023-07-31T09:37:10;100870.19;;;20.02;100.00
63281;BME280;49406;51.044;3.766;2023-07-31T09:39:48;100864.64;;;20.03;100.00
63281;BME280;49406;51.044;3.766;2023-07-31T09:42:28;100862.59;;;19.95;100.00
63281;BME280;49406;51.044;3.766;2023-07-31T09:45:11;100857.76;;;19.85;100.00
63281;BME280;49406;51.044;3.766;2023-07-31T09:47:49;100851.84;;;19.87;100.00
63281;BME280;49406;51.044;3.766;2023-07-31T09:50:24;100852.14;;;19.89;100.00
63281;BME280;49406;51.044;3.766;2023-07-31T09:52:59;100849.98;;;19.90;100.00
63281;BME280;49406;51.044;3.766;2023-07-31T09:55:34;100857.38;;;19.97;100.00
63281;BME280;49406;51.044;3.766;2023-07-31T09:58:10;100855.69;;;20.00;100.00
63281;BME280;49406;51.044;3.766;2023-07-31T10:00:46;100858.99;;;20.08;100.00
63281;BME280;49406;51.044;3.766;2023-07-31T10:03:21;100858.85;;;20.19;100.00
63281;BME280;49406;51.044;3.766;2023-07-31T10:05:57;100852.21;;;20.16;100.00
63281;BME280;49406;51.044;3.766;2023-07-31T10:08:36;100854.20;;;20.20;100.00
63281;BME280;49406;51.044;3.766;2023-07-31T10:11:12;100861.58;;;20.27;100.00
63281;BME280;49406;51.044;3.766;2023-07-31T10:13:47;100857.71;;;20.26;100.00
63281;BME280;49406;51.044;3.766;2023-07-31T10:16:23;100853.88;;;20.24;100.00
63281;BME280;49406;51.044;3.766;2023-07-31T10:18:58;100851.48;;;20.27;100.00
63281;BME280;49406;51.044;3.766;2023-07-31T10:21:34;100844.84;;;20.29;100.00
63281;BME280;49406;51.044;3.766;2023-07-31T10:24:09;100851.48;;;20.16;100.00
63281;BME280;49406;51.044;3.766;2023-07-31T10:26:45;100844.29;;;20.02;100.00
63281;BME280;49406;51.044;3.766;2023-07-31T10:29:22;100851.84;;;19.93;100.00
63281;BME280;49406;51.044;3.766;2023-07-31T10:31:57;100852.23;;;19.79;100.00
63281;BME280;49406;51.044;3.766;2023-07-31T10:34:32;100853.92;;;19.70;100.00
63281;BME280;49406;51.044;3.766;2023-07-31T10:37:25;100845.58;;;19.65;100.00
63281;BME280;49406;51.044;3.766;2023-07-31T10:40:01;100847.64;;;19.61;100.00
63281;BME280;49406;51.044;3.766;2023-07-31T10:42:38;100844.38;;;19.57;100.00
63281;BME280;49406;51.044;3.766;2023-07-31T10:45:25;100833.98;;;19.55;100.00
63281;BME280;49406;51.044;3.766;2023-07-31T10:48:02;100837.23;;;19.59;100.00
63281;BME280;49406;51.044;3.766;2023-07-31T10:50:45;100827.83;;;19.77;100.00
63281;BME280;49406;51.044;3.766;2023-07-31T10:53:25;100832.27;;;19.94;100.00
63281;BME280;49406;51.044;3.766;2023-07-31T10:56:01;100825.30;;;20.07;100.00
63281;BME280;49406;51.044;3.766;2023-07-31T10:58:37;100830.16;;;20.17;100.00
63281;BME280;49406;51.044;3.766;2023-07-31T11:01:11;100824.66;;;20.27;100.00
63281;BME280;49406;51.044;3.766;2023-07-31T11:03:47;100822.02;;;20.38;100.00
63281;BME280;49406;51.044;3.766;2023-07-31T11:06:22;100815.46;;;20.49;100.00
63281;BME280;49406;51.044;3.766;2023-07-31T11:08:57;100808.94;;;20.58;100.00
63281;BME280;49406;51.044;3.766;2023-07-31T11:11:31;100809.42;;;20.65;100.00
63281;BME280;49406;51.044;3.766;2023-07-31T11:14:07;100802.89;;;20.79;100.00
63281;BME280;49406;51.044;3.766;2023-07-31T11:16:44;100795.86;;;20.97;100.00
63281;BME280;49406;51.044;3.766;2023-07-31T11:19:24;100789.55;;;21.05;100.00
63281;BME280;49406;51.044;3.766;2023-07-31T11:21:58;100791.68;;;21.14;100.00
63281;BME280;49406;51.044;3.766;2023-07-31T11:24:31;100787.36;;;21.21;100.00
63281;BME280;49406;51.044;3.766;2023-07-31T11:27:09;100787.04;;;21.25;100.00
63281;BME280;49406;51.044;3.766;2023-07-31T11:29:43;100789.20;;;21.24;100.00
63281;BME280;49406;51.044;3.766;2023-07-31T11:32:18;100793.48;;;21.35;100.00
63281;BME280;49406;51.044;3.766;2023-07-31T11:34:56;100795.14;;;21.27;100.00
63281;BME280;49406;51.044;3.766;2023-07-31T11:37:41;100779.30;;;21.28;100.00
63281;BME280;49406;51.044;3.766;2023-07-31T11:40:17;100777.45;;;21.25;100.00
63281;BME280;49406;51.044;3.766;2023-07-31T11:42:53;100781.78;;;21.23;100.00
63281;BME280;49406;51.044;3.766;2023-07-31T11:45:28;100770.67;;;21.30;100.00
63281;BME280;49406;51.044;3.766;2023-07-31T11:48:03;100766.83;;;21.43;100.00
63281;BME280;49406;51.044;3.766;2023-07-31T11:50:37;100756.52;;;21.56;100.00
63281;BME280;49406;51.044;3.766;2023-07-31T11:53:12;100756.09;;;21.68;100.00
63281;BME280;49406;51.044;3.766;2023-07-31T11:55:48;100749.83;;;21.73;100.00
63281;BME280;49406;51.044;3.766;2023-07-31T11:58:23;100748.42;;;21.86;100.00
63281;BME280;49406;51.044;3.766;2023-07-31T12:00:58;100739.89;;;21.77;100.00
63281;BME280;49406;51.044;3.766;2023-07-31T12:03:34;100739.61;;;21.66;100.00
63281;BME280;49406;51.044;3.766;2023-07-31T12:06:09;100733.34;;;21.62;100.00
63281;BME280;49406;51.044;3.766;2023-07-31T12:08:43;100734.48;;;21.65;100.00
63281;BME280;49406;51.044;3.766;2023-07-31T12:11:18;100731.09;;;21.61;100.00
63281;BME280;49406;51.044;3.766;2023-07-31T12:13:52;100737.95;;;21.58;100.00
63281;BME280;49406;51.044;3.766;2023-07-31T12:16:28;100741.75;;;21.52;100.00
63281;BME280;49406;51.044;3.766;2023-07-31T12:19:03;100731.64;;;21.47;100.00
63281;BME280;49406;51.044;3.766;2023-07-31T12:21:39;100734.91;;;21.45;100.00
63281;BME280;49406;51.044;3.766;2023-07-31T12:24:13;100729.95;;;21.36;100.00
63281;BME280;49406;51.044;3.766;2023-07-31T12:26:48;100732.16;;;21.28;100.00
63281;BME280;49406;51.044;3.766;2023-07-31T12:29:23;100735.23;;;21.17;100.00
63281;BME280;49406;51.044;3.766;2023-07-31T12:31:58;100745.91;;;21.07;100.00
63281;BME280;49406;51.044;3.766;2023-07-31T12:34:35;100746.94;;;20.89;100.00
63281;BME280;49406;51.044;3.766;2023-07-31T12:37:16;100748.90;;;20.68;100.00
63281;BME280;49406;51.044;3.766;2023-07-31T12:39:51;100744.35;;;20.40;100.00
63281;BME280;49406;51.044;3.766;2023-07-31T12:42:25;100746.26;;;20.20;100.00
63281;BME280;49406;51.044;3.766;2023-07-31T12:45:00;100747.77;;;20.01;100.00
63281;BME280;49406;51.044;3.766;2023-07-31T12:47:34;100748.58;;;19.92;100.00
63281;BME280;49406;51.044;3.766;2023-07-31T12:50:10;100749.48;;;19.86;100.00
63281;BME280;49406;51.044;3.766;2023-07-31T12:52:45;100754.45;;;19.80;100.00
63281;BME280;49406;51.044;3.766;2023-07-31T12:55:19;100745.77;;;19.69;100.00
63281;BME280;49406;51.044;3.766;2023-07-31T12:57:54;100743.30;;;19.57;100.00
63281;BME280;49406;51.044;3.766;2023-07-31T13:00:29;100735.59;;;19.47;100.00
63281;BME280;49406;51.044;3.766;2023-07-31T13:03:04;100738.21;;;19.42;100.00
63281;BME280;49406;51.044;3.766;2023-07-31T13:05:38;100732.59;;;19.41;100.00
63281;BME280;49406;51.044;3.766;2023-07-31T13:08:13;100726.48;;;19.38;100.00
63281;BME280;49406;51.044;3.766;2023-07-31T13:10:49;100722.96;;;19.31;100.00
63281;BME280;49406;51.044;3.766;2023-07-31T13:13:23;100721.83;;;19.21;100.00
63281;BME280;49406;51.044;3.766;2023-07-31T13:15:58;100720.23;;;19.16;100.00
63281;BME280;49406;51.044;3.766;2023-07-31T13:18:33;100717.38;;;19.10;100.00
63281;BME280;49406;51.044;3.766;2023-07-31T13:21:07;100711.05;;;19.02;100.00
63281;BME280;49406;51.044;3.766;2023-07-31T13:23:42;100709.83;;;18.95;100.00
63281;BME280;49406;51.044;3.766;2023-07-31T13:26:16;100709.46;;;18.95;100.00
63281;BME280;49406;51.044;3.766;2023-07-31T13:28:51;100699.36;;;18.89;100.00